sensor_id;sensor_type;location;lat;lon;timestamp;P1;durP1;ratioP1;P2;durP2;ratioP2
26502;SDS011;14177;51.520;6.764;2022-08-21T00:00:25;6.55;;;2.70;;
26502;SDS011;14177;51.520;6.764;2022-08-21T00:03:00;8.75;;;2.85;;
26502;SDS011;14177;51.520;6.764;2022-08-21T00:05:43;8.73;;;2.78;;
26502;SDS011;14177;51.520;6.764;2022-08-21T00:08:19;6.97;;;2.97;;
26502;SDS011;14177;51.520;6.764;2022-08-21T00:10:47;7.60;;;3.13;;
26502;SDS011;14177;51.520;6.764;2022-08-21T00:13:15;8.13;;;3.17;;
26502;SDS011;14177;51.520;6.764;2022-08-21T00:15:46;5.82;;;2.88;;
26502;SDS011;14177;51.520;6.764;2022-08-21T00:18:15;7.20;;;3.05;;
26502;SDS011;14177;51.520;6.764;2022-08-21T00:20:44;5.82;;;2.55;;
26502;SDS011;14177;51.520;6.764;2022-08-21T00:23:13;5.95;;;3.15;;
26502;SDS011;14177;51.520;6.764;2022-08-21T00:25:40;7.93;;;3.05;;
26502;SDS011;14177;51.520;6.764;2022-08-21T00:28:09;5.43;;;2.70;;
26502;SDS011;14177;51.520;6.764;2022-08-21T00:30:38;5.47;;;3.00;;
26502;SDS011;14177;51.520;6.764;2022-08-21T00:33:06;6.90;;;3.08;;
26502;SDS011;14177;51.520;6.764;2022-08-21T00:35:38;7.18;;;3.03;;
26502;SDS011;14177;51.520;6.764;2022-08-21T00:38:08;10.82;;;3.00;;
26502;SDS011;14177;51.520;6.764;2022-08-21T00:40:41;7.30;;;3.50;;
26502;SDS011;14177;51.520;6.764;2022-08-21T00:43:17;6.93;;;3.30;;
26502;SDS011;14177;51.520;6.764;2022-08-21T00:45:48;7.47;;;3.17;;
26502;SDS011;14177;51.520;6.764;2022-08-21T00:48:16;5.95;;;3.33;;
26502;SDS011;14177;51.520;6.764;2022-08-21T00:50:45;5.97;;;3.10;;
26502;SDS011;14177;51.520;6.764;2022-08-21T00:53:18;6.50;;;3.05;;
26502;SDS011;14177;51.520;6.764;2022-08-21T00:55:45;7.07;;;2.97;;
26502;SDS011;14177;51.520;6.764;2022-08-21T00:58:14;6.28;;;2.97;;
26502;SDS011;14177;51.520;6.764;2022-08-21T01:00:46;8.73;;;3.35;;
26502;SDS011;14177;51.520;6.764;2022-08-21T01:03:16;7.45;;;3.10;;
26502;SDS011;14177;51.520;6.764;2022-08-21T01:05:49;7.10;;;3.45;;
26502;SDS011;14177;51.520;6.764;2022-08-21T01:08:17;7.40;;;2.83;;
26502;SDS011;14177;51.520;6.764;2022-08-21T01:10:47;7.13;;;3.45;;
26502;SDS011;14177;51.520;6.764;2022-08-21T01:13:24;6.30;;;2.80;;
26502;SDS011;14177;51.520;6.764;2022-08-21T01:15:54;6.95;;;3.03;;
26502;SDS011;14177;51.520;6.764;2022-08-21T01:18:25;7.93;;;3.50;;
26502;SDS011;14177;51.520;6.764;2022-08-21T01:21:01;6.53;;;2.97;;
26502;SDS011;14177;51.520;6.764;2022-08-21T01:24:03;7.55;;;3.08;;
26502;SDS011;14177;51.520;6.764;2022-08-21T01:26:32;5.22;;;2.88;;
26502;SDS011;14177;51.520;6.764;2022-08-21T01:29:05;5.28;;;3.08;;
26502;SDS011;14177;51.520;6.764;2022-08-21T01:31:37;8.52;;;3.42;;
26502;SDS011;14177;51.520;6.764;2022-08-21T01:34:05;8.38;;;3.55;;
26502;SDS011;14177;51.520;6.764;2022-08-21T01:36:33;6.85;;;3.20;;
26502;SDS011;14177;51.520;6.764;2022-08-21T01:39:04;4.65;;;3.13;;
26502;SDS011;14177;51.520;6.764;2022-08-21T01:41:35;6.72;;;3.75;;
26502;SDS011;14177;51.520;6.764;2022-08-21T01:44:02;5.72;;;3.40;;
26502;SDS011;14177;51.520;6.764;2022-08-21T01:46:30;5.50;;;3.10;;
26502;SDS011;14177;51.520;6.764;2022-08-21T01:48:57;5.88;;;3.20;;
26502;SDS011;14177;51.520;6.764;2022-08-21T01:51:25;6.25;;;3.55;;
26502;SDS011;14177;51.520;6.764;2022-08-21T01:53:52;6.78;;;3.50;;
26502;SDS011;14177;51.520;6.764;2022-08-21T01:56:19;8.07;;;4.10;;
26502;SDS011;14177;51.520;6.764;2022-08-21T01:58:46;7.00;;;3.65;;
26502;SDS011;14177;51.520;6.764;2022-08-21T02:01:14;5.40;;;3.58;;
26502;SDS011;14177;51.520;6.764;2022-08-21T02:03:41;8.45;;;3.53;;
26502;SDS011;14177;51.520;6.764;2022-08-21T02:06:11;11.50;;;4.07;;
26502;SDS011;14177;51.520;6.764;2022-08-21T02:08:43;5.80;;;3.40;;
26502;SDS011;14177;51.520;6.764;2022-08-21T02:11:11;6.00;;;3.63;;
26502;SDS011;14177;51.520;6.764;2022-08-21T02:13:38;11.05;;;3.80;;
26502;SDS011;14177;51.520;6.764;2022-08-21T02:16:06;6.32;;;3.90;;
26502;SDS011;14177;51.520;6.764;2022-08-21T02:18:34;7.90;;;4.10;;
26502;SDS011;14177;51.520;6.764;2022-08-21T02:21:02;7.43;;;3.53;;
26502;SDS011;14177;51.520;6.764;2022-08-21T02:23:31;5.80;;;3.50;;
26502;SDS011;14177;51.520;6.764;2022-08-21T02:25:59;6.35;;;3.60;;
26502;SDS011;14177;51.520;6.764;2022-08-21T02:28:32;8.23;;;3.60;;
26502;SDS011;14177;51.520;6.764;2022-08-21T02:31:00;4.80;;;3.33;;
26502;SDS011;14177;51.520;6.764;2022-08-21T02:33:28;7.20;;;3.55;;
26502;SDS011;14177;51.520;6.764;2022-08-21T02:35:55;9.30;;;3.97;;
26502;SDS011;14177;51.520;6.764;2022-08-21T02:38:24;8.07;;;3.92;;
26502;SDS011;14177;51.520;6.764;2022-08-21T02:40:56;8.75;;;4.00;;
26502;SDS011;14177;51.520;6.764;2022-08-21T02:43:24;9.30;;;3.92;;
26502;SDS011;14177;51.520;6.764;2022-08-21T02:45:54;5.20;;;3.58;;
26502;SDS011;14177;51.520;6.764;2022-08-21T02:48:31;7.78;;;3.80;;
26502;SDS011;14177;51.520;6.764;2022-08-21T02:51:02;9.18;;;4.03;;
26502;SDS011;14177;51.520;6.764;2022-08-21T02:53:32;4.95;;;3.40;;
26502;SDS011;14177;51.520;6.764;2022-08-21T02:56:02;6.47;;;3.92;;
26502;SDS011;14177;51.520;6.764;2022-08-21T02:58:34;7.82;;;3.60;;
26502;SDS011;14177;51.520;6.764;2022-08-21T03:01:20;6.32;;;3.60;;
26502;SDS011;14177;51.520;6.764;2022-08-21T03:03:48;8.45;;;4.07;;
26502;SDS011;14177;51.520;6.764;2022-08-21T03:06:19;4.20;;;3.22;;
26502;SDS011;14177;51.520;6.764;2022-08-21T03:08:48;8.85;;;3.47;;
26502;SDS011;14177;51.520;6.764;2022-08-21T03:11:16;6.25;;;3.72;;
26502;SDS011;14177;51.520;6.764;2022-08-21T03:13:46;7.28;;;3.83;;
26502;SDS011;14177;51.520;6.764;2022-08-21T03:16:13;8.32;;;3.65;;
26502;SDS011;14177;51.520;6.764;2022-08-21T03:19:01;8.38;;;3.33;;
26502;SDS011;14177;51.520;6.764;2022-08-21T03:21:29;6.72;;;3.33;;
26502;SDS011;14177;51.520;6.764;2022-08-21T03:23:56;5.90;;;3.30;;
26502;SDS011;14177;51.520;6.764;2022-08-21T03:26:23;5.75;;;3.60;;
26502;SDS011;14177;51.520;6.764;2022-08-21T03:28:53;7.10;;;3.40;;
26502;SDS011;14177;51.520;6.764;2022-08-21T03:31:20;8.55;;;3.65;;
26502;SDS011;14177;51.520;6.764;2022-08-21T03:33:47;7.70;;;3.40;;
26502;SDS011;14177;51.520;6.764;2022-08-21T03:36:14;5.88;;;3.60;;
26502;SDS011;14177;51.520;6.764;2022-08-21T03:38:42;8.25;;;3.42;;
26502;SDS011;14177;51.520;6.764;2022-08-21T03:41:09;6.07;;;3.70;;
26502;SDS011;14177;51.520;6.764;2022-08-21T03:43:35;10.60;;;3.83;;
26502;SDS011;14177;51.520;6.764;2022-08-21T03:46:04;6.60;;;3.47;;
26502;SDS011;14177;51.520;6.764;2022-08-21T03:48:33;5.57;;;3.20;;
26502;SDS011;14177;51.520;6.764;2022-08-21T03:51:03;6.03;;;3.63;;
26502;SDS011;14177;51.520;6.764;2022-08-21T03:53:32;6.30;;;3.47;;
26502;SDS011;14177;51.520;6.764;2022-08-21T03:56:00;7.10;;;3.80;;
26502;SDS011;14177;51.520;6.764;2022-08-21T03:58:27;6.70;;;3.85;;
26502;SDS011;14177;51.520;6.764;2022-08-21T04:00:56;8.93;;;3.60;;
26502;SDS011;14177;51.520;6.764;2022-08-21T04:03:26;5.30;;;3.13;;
26502;SDS011;14177;51.520;6.764;2022-08-21T04:05:55;5.05;;;3.22;;
26502;SDS011;14177;51.520;6.764;2022-08-21T04:08:23;6.00;;;3.65;;
26502;SDS011;14177;51.520;6.764;2022-08-21T04:10:51;7.70;;;4.05;;
26502;SDS011;14177;51.520;6.764;2022-08-21T04:13:21;10.38;;;3.92;;
26502;SDS011;14177;51.520;6.764;2022-08-21T04:15:49;6.47;;;3.60;;
26502;SDS011;14177;51.520;6.764;2022-08-21T04:18:16;6.35;;;3.83;;
26502;SDS011;14177;51.520;6.764;2022-08-21T04:20:44;6.90;;;3.90;;
26502;SDS011;14177;51.520;6.764;2022-08-21T04:23:16;7.70;;;3.88;;
26502;SDS011;14177;51.520;6.764;2022-08-21T04:25:50;7.50;;;3.88;;
26502;SDS011;14177;51.520;6.764;2022-08-21T04:28:22;7.35;;;3.72;;
26502;SDS011;14177;51.520;6.764;2022-08-21T04:30:55;7.63;;;4.15;;
26502;SDS011;14177;51.520;6.764;2022-08-21T04:33:23;7.13;;;3.70;;
26502;SDS011;14177;51.520;6.764;2022-08-21T04:35:50;8.50;;;4.63;;
26502;SDS011;14177;51.520;6.764;2022-08-21T04:38:20;7.43;;;4.38;;
26502;SDS011;14177;51.520;6.764;2022-08-21T04:40:47;6.40;;;3.58;;
26502;SDS011;14177;51.520;6.764;2022-08-21T04:43:16;8.35;;;4.40;;
26502;SDS011;14177;51.520;6.764;2022-08-21T04:45:45;6.05;;;4.43;;
26502;SDS011;14177;51.520;6.764;2022-08-21T04:48:15;8.65;;;4.03;;
26502;SDS011;14177;51.520;6.764;2022-08-21T04:51:28;7.35;;;4.50;;
26502;SDS011;14177;51.520;6.764;2022-08-21T04:56:22;7.07;;;3.72;;
26502;SDS011;14177;51.520;6.764;2022-08-21T04:58:56;6.47;;;3.72;;
26502;SDS011;14177;51.520;6.764;2022-08-21T05:01:29;10.20;;;4.35;;
26502;SDS011;14177;51.520;6.764;2022-08-21T05:04:00;6.75;;;3.92;;
26502;SDS011;14177;51.520;6.764;2022-08-21T05:06:34;8.77;;;4.45;;
26502;SDS011;14177;51.520;6.764;2022-08-21T05:09:04;6.80;;;4.45;;
26502;SDS011;14177;51.520;6.764;2022-08-21T05:11:31;8.07;;;4.85;;
26502;SDS011;14177;51.520;6.764;2022-08-21T05:13:59;8.52;;;4.57;;
26502;SDS011;14177;51.520;6.764;2022-08-21T05:16:26;7.32;;;4.60;;
26502;SDS011;14177;51.520;6.764;2022-08-21T05:19:03;8.10;;;4.38;;
26502;SDS011;14177;51.520;6.764;2022-08-21T05:21:33;8.40;;;4.78;;
26502;SDS011;14177;51.520;6.764;2022-08-21T05:24:01;6.82;;;4.57;;
26502;SDS011;14177;51.520;6.764;2022-08-21T05:26:29;7.47;;;4.00;;
26502;SDS011;14177;51.520;6.764;2022-08-21T05:29:10;8.15;;;4.13;;
26502;SDS011;14177;51.520;6.764;2022-08-21T05:31:38;9.77;;;4.65;;
26502;SDS011;14177;51.520;6.764;2022-08-21T05:34:05;4.82;;;3.50;;
26502;SDS011;14177;51.520;6.764;2022-08-21T05:36:32;10.73;;;4.32;;
26502;SDS011;14177;51.520;6.764;2022-08-21T05:39:00;9.60;;;4.60;;
26502;SDS011;14177;51.520;6.764;2022-08-21T05:41:32;9.10;;;4.68;;
26502;SDS011;14177;51.520;6.764;2022-08-21T05:43:59;8.63;;;4.50;;
26502;SDS011;14177;51.520;6.764;2022-08-21T05:46:26;10.38;;;5.22;;
26502;SDS011;14177;51.520;6.764;2022-08-21T05:48:53;10.50;;;5.47;;
26502;SDS011;14177;51.520;6.764;2022-08-21T05:51:20;14.52;;;6.50;;
26502;SDS011;14177;51.520;6.764;2022-08-21T05:53:47;12.48;;;6.30;;
26502;SDS011;14177;51.520;6.764;2022-08-21T05:56:14;14.73;;;6.10;;
26502;SDS011;14177;51.520;6.764;2022-08-21T05:58:41;14.27;;;5.97;;
26502;SDS011;14177;51.520;6.764;2022-08-21T06:01:09;8.85;;;5.30;;
26502;SDS011;14177;51.520;6.764;2022-08-21T06:03:38;12.90;;;6.20;;
26502;SDS011;14177;51.520;6.764;2022-08-21T06:06:06;11.93;;;5.93;;
26502;SDS011;14177;51.520;6.764;2022-08-21T06:08:34;9.98;;;5.68;;
26502;SDS011;14177;51.520;6.764;2022-08-21T06:11:01;15.25;;;6.18;;
26502;SDS011;14177;51.520;6.764;2022-08-21T06:13:30;10.68;;;5.07;;
26502;SDS011;14177;51.520;6.764;2022-08-21T06:16:01;15.80;;;6.47;;
26502;SDS011;14177;51.520;6.764;2022-08-21T06:18:34;14.82;;;6.20;;
26502;SDS011;14177;51.520;6.764;2022-08-21T06:21:06;12.57;;;5.68;;
26502;SDS011;14177;51.520;6.764;2022-08-21T06:23:47;15.98;;;5.32;;
26502;SDS011;14177;51.520;6.764;2022-08-21T06:26:14;14.95;;;5.60;;
26502;SDS011;14177;51.520;6.764;2022-08-21T06:28:43;13.55;;;5.45;;
26502;SDS011;14177;51.520;6.764;2022-08-21T06:31:12;15.95;;;5.40;;
26502;SDS011;14177;51.520;6.764;2022-08-21T06:33:42;8.15;;;4.85;;
26502;SDS011;14177;51.520;6.764;2022-08-21T06:36:09;9.00;;;5.05;;
26502;SDS011;14177;51.520;6.764;2022-08-21T06:38:37;15.40;;;5.95;;
26502;SDS011;14177;51.520;6.764;2022-08-21T06:41:05;15.43;;;5.60;;
26502;SDS011;14177;51.520;6.764;2022-08-21T06:43:35;14.15;;;4.82;;
26502;SDS011;14177;51.520;6.764;2022-08-21T06:46:05;11.00;;;4.68;;
26502;SDS011;14177;51.520;6.764;2022-08-21T06:48:33;10.63;;;3.88;;
26502;SDS011;14177;51.520;6.764;2022-08-21T06:51:00;12.88;;;4.22;;
26502;SDS011;14177;51.520;6.764;2022-08-21T06:53:28;14.10;;;4.53;;
26502;SDS011;14177;51.520;6.764;2022-08-21T06:55:55;14.48;;;4.57;;
26502;SDS011;14177;51.520;6.764;2022-08-21T06:58:22;11.35;;;4.00;;
26502;SDS011;14177;51.520;6.764;2022-08-21T07:00:54;11.95;;;3.60;;
26502;SDS011;14177;51.520;6.764;2022-08-21T07:03:27;12.90;;;2.97;;
26502;SDS011;14177;51.520;6.764;2022-08-21T07:06:14;10.68;;;3.70;;
26502;SDS011;14177;51.520;6.764;2022-08-21T07:08:44;11.60;;;3.40;;
26502;SDS011;14177;51.520;6.764;2022-08-21T07:11:12;10.98;;;3.22;;
26502;SDS011;14177;51.520;6.764;2022-08-21T07:13:45;14.88;;;3.42;;
26502;SDS011;14177;51.520;6.764;2022-08-21T07:16:12;11.40;;;3.50;;
26502;SDS011;14177;51.520;6.764;2022-08-21T07:18:39;10.38;;;3.03;;
26502;SDS011;14177;51.520;6.764;2022-08-21T07:21:06;8.90;;;2.67;;
26502;SDS011;14177;51.520;6.764;2022-08-21T07:23:42;8.68;;;2.45;;
26502;SDS011;14177;51.520;6.764;2022-08-21T07:26:13;6.40;;;2.25;;
26502;SDS011;14177;51.520;6.764;2022-08-21T07:28:43;7.55;;;2.42;;
26502;SDS011;14177;51.520;6.764;2022-08-21T07:31:10;9.70;;;2.78;;
26502;SDS011;14177;51.520;6.764;2022-08-21T07:33:42;8.02;;;2.30;;
26502;SDS011;14177;51.520;6.764;2022-08-21T07:36:10;5.23;;;2.40;;
26502;SDS011;14177;51.520;6.764;2022-08-21T07:38:58;6.95;;;2.00;;
26502;SDS011;14177;51.520;6.764;2022-08-21T07:41:26;7.82;;;2.13;;
26502;SDS011;14177;51.520;6.764;2022-08-21T07:43:55;6.57;;;2.50;;
26502;SDS011;14177;51.520;6.764;2022-08-21T07:46:26;9.43;;;2.35;;
26502;SDS011;14177;51.520;6.764;2022-08-21T07:48:53;6.57;;;2.42;;
26502;SDS011;14177;51.520;6.764;2022-08-21T07:51:21;5.40;;;2.20;;
26502;SDS011;14177;51.520;6.764;2022-08-21T07:53:54;8.50;;;2.55;;
26502;SDS011;14177;51.520;6.764;2022-08-21T07:56:23;4.72;;;1.60;;
26502;SDS011;14177;51.520;6.764;2022-08-21T07:58:51;8.05;;;1.70;;
26502;SDS011;14177;51.520;6.764;2022-08-21T08:01:18;4.60;;;1.50;;
26502;SDS011;14177;51.520;6.764;2022-08-21T08:03:46;3.50;;;1.10;;
26502;SDS011;14177;51.520;6.764;2022-08-21T08:06:13;5.10;;;1.30;;
26502;SDS011;14177;51.520;6.764;2022-08-21T08:08:42;5.97;;;1.30;;
26502;SDS011;14177;51.520;6.764;2022-08-21T08:11:10;5.93;;;1.10;;
26502;SDS011;14177;51.520;6.764;2022-08-21T08:13:41;6.38;;;1.13;;
26502;SDS011;14177;51.520;6.764;2022-08-21T08:16:12;4.90;;;1.17;;
26502;SDS011;14177;51.520;6.764;2022-08-21T08:18:40;6.45;;;1.38;;
26502;SDS011;14177;51.520;6.764;2022-08-21T08:21:08;6.38;;;1.20;;
26502;SDS011;14177;51.520;6.764;2022-08-21T08:23:37;7.30;;;1.20;;
26502;SDS011;14177;51.520;6.764;2022-08-21T08:26:29;4.35;;;1.33;;
26502;SDS011;14177;51.520;6.764;2022-08-21T08:29:07;6.80;;;1.27;;
26502;SDS011;14177;51.520;6.764;2022-08-21T08:31:48;4.53;;;1.20;;
26502;SDS011;14177;51.520;6.764;2022-08-21T08:34:16;6.20;;;1.35;;
26502;SDS011;14177;51.520;6.764;2022-08-21T08:36:51;4.72;;;1.13;;
26502;SDS011;14177;51.520;6.764;2022-08-21T08:39:21;4.35;;;0.95;;
26502;SDS011;14177;51.520;6.764;2022-08-21T08:42:14;4.60;;;1.35;;
26502;SDS011;14177;51.520;6.764;2022-08-21T08:45:18;4.85;;;0.90;;
26502;SDS011;14177;51.520;6.764;2022-08-21T08:47:53;5.15;;;1.10;;
26502;SDS011;14177;51.520;6.764;2022-08-21T08:50:48;5.93;;;1.17;;
26502;SDS011;14177;51.520;6.764;2022-08-21T08:53:30;4.63;;;1.10;;
26502;SDS011;14177;51.520;6.764;2022-08-21T08:56:03;4.38;;;1.00;;
26502;SDS011;14177;51.520;6.764;2022-08-21T08:58:33;5.15;;;0.98;;
26502;SDS011;14177;51.520;6.764;2022-08-21T09:01:10;4.72;;;1.13;;
26502;SDS011;14177;51.520;6.764;2022-08-21T09:03:46;8.05;;;1.25;;
26502;SDS011;14177;51.520;6.764;2022-08-21T09:12:14;3.88;;;0.90;;
26502;SDS011;14177;51.520;6.764;2022-08-21T09:24:00;3.08;;;0.90;;
26502;SDS011;14177;51.520;6.764;2022-08-21T09:26:52;5.78;;;1.13;;
26502;SDS011;14177;51.520;6.764;2022-08-21T09:29:28;6.80;;;1.50;;
26502;SDS011;14177;51.520;6.764;2022-08-21T09:32:00;3.15;;;1.27;;
26502;SDS011;14177;51.520;6.764;2022-08-21T09:34:32;2.95;;;1.10;;
26502;SDS011;14177;51.520;6.764;2022-08-21T09:37:16;4.87;;;0.93;;
26502;SDS011;14177;51.520;6.764;2022-08-21T09:39:44;5.85;;;1.30;;
26502;SDS011;14177;51.520;6.764;2022-08-21T09:42:20;5.97;;;1.10;;
26502;SDS011;14177;51.520;6.764;2022-08-21T09:45:08;5.18;;;1.05;;
26502;SDS011;14177;51.520;6.764;2022-08-21T09:47:44;7.03;;;1.25;;
26502;SDS011;14177;51.520;6.764;2022-08-21T09:50:14;4.30;;;1.08;;
26502;SDS011;14177;51.520;6.764;2022-08-21T09:52:48;5.97;;;1.92;;
26502;SDS011;14177;51.520;6.764;2022-08-21T09:55:30;3.90;;;1.50;;
26502;SDS011;14177;51.520;6.764;2022-08-21T09:58:29;4.03;;;1.20;;
26502;SDS011;14177;51.520;6.764;2022-08-21T10:01:02;5.25;;;1.13;;
26502;SDS011;14177;51.520;6.764;2022-08-21T10:03:31;4.90;;;1.00;;
26502;SDS011;14177;51.520;6.764;2022-08-21T10:06:04;3.30;;;0.85;;
26502;SDS011;14177;51.520;6.764;2022-08-21T10:08:36;5.30;;;0.98;;
26502;SDS011;14177;51.520;6.764;2022-08-21T10:11:10;3.92;;;0.80;;
26502;SDS011;14177;51.520;6.764;2022-08-21T10:22:07;5.05;;;1.10;;
26502;SDS011;14177;51.520;6.764;2022-08-21T10:24:50;5.40;;;0.90;;
26502;SDS011;14177;51.520;6.764;2022-08-21T10:27:36;3.15;;;0.77;;
26502;SDS011;14177;51.520;6.764;2022-08-21T10:30:26;3.78;;;1.00;;
26502;SDS011;14177;51.520;6.764;2022-08-21T10:46:15;4.93;;;1.23;;
26502;SDS011;14177;51.520;6.764;2022-08-21T10:57:27;3.72;;;1.20;;
26502;SDS011;14177;51.520;6.764;2022-08-21T11:00:55;4.43;;;1.20;;
26502;SDS011;14177;51.520;6.764;2022-08-21T11:04:09;3.10;;;1.00;;
26502;SDS011;14177;51.520;6.764;2022-08-21T11:06:52;2.40;;;0.88;;
26502;SDS011;14177;51.520;6.764;2022-08-21T11:09:43;5.25;;;1.02;;
26502;SDS011;14177;51.520;6.764;2022-08-21T11:21:03;4.07;;;0.98;;
26502;SDS011;14177;51.520;6.764;2022-08-21T11:24:08;2.38;;;0.98;;
26502;SDS011;14177;51.520;6.764;2022-08-21T11:29:53;4.88;;;0.82;;
26502;SDS011;14177;51.520;6.764;2022-08-21T11:43:53;2.05;;;0.57;;
26502;SDS011;14177;51.520;6.764;2022-08-21T11:49:56;4.18;;;1.38;;
26502;SDS011;14177;51.520;6.764;2022-08-21T11:53:02;2.58;;;0.90;;
26502;SDS011;14177;51.520;6.764;2022-08-21T12:01:03;3.80;;;0.70;;
26502;SDS011;14177;51.520;6.764;2022-08-21T12:03:38;3.20;;;0.68;;
26502;SDS011;14177;51.520;6.764;2022-08-21T12:06:26;7.28;;;0.85;;
26502;SDS011;14177;51.520;6.764;2022-08-21T12:09:03;3.35;;;0.55;;
26502;SDS011;14177;51.520;6.764;2022-08-21T12:11:48;5.53;;;1.08;;
26502;SDS011;14177;51.520;6.764;2022-08-21T12:14:49;2.50;;;0.75;;
26502;SDS011;14177;51.520;6.764;2022-08-21T12:17:50;1.52;;;0.70;;
26502;SDS011;14177;51.520;6.764;2022-08-21T12:28:46;3.83;;;0.82;;
26502;SDS011;14177;51.520;6.764;2022-08-21T12:31:18;3.25;;;0.80;;
26502;SDS011;14177;51.520;6.764;2022-08-21T12:33:56;5.53;;;1.00;;
26502;SDS011;14177;51.520;6.764;2022-08-21T12:36:38;2.90;;;0.75;;
26502;SDS011;14177;51.520;6.764;2022-08-21T12:39:13;2.28;;;0.60;;
26502;SDS011;14177;51.520;6.764;2022-08-21T12:42:04;3.25;;;0.88;;
26502;SDS011;14177;51.520;6.764;2022-08-21T12:44:45;3.17;;;0.70;;
26502;SDS011;14177;51.520;6.764;2022-08-21T12:47:43;3.05;;;0.70;;
26502;SDS011;14177;51.520;6.764;2022-08-21T12:50:35;2.15;;;0.80;;
26502;SDS011;14177;51.520;6.764;2022-08-21T12:56:18;3.08;;;1.00;;
26502;SDS011;14177;51.520;6.764;2022-08-21T12:58:56;3.90;;;0.70;;
26502;SDS011;14177;51.520;6.764;2022-08-21T13:01:39;3.13;;;0.60;;
26502;SDS011;14177;51.520;6.764;2022-08-21T13:04:16;1.70;;;0.60;;
26502;SDS011;14177;51.520;6.764;2022-08-21T13:06:47;3.05;;;0.70;;
26502;SDS011;14177;51.520;6.764;2022-08-21T13:09:20;3.40;;;0.60;;
26502;SDS011;14177;51.520;6.764;2022-08-21T13:11:55;4.15;;;0.80;;
26502;SDS011;14177;51.520;6.764;2022-08-21T13:14:31;2.38;;;0.65;;
26502;SDS011;14177;51.520;6.764;2022-08-21T13:17:18;2.65;;;0.50;;
26502;SDS011;14177;51.520;6.764;2022-08-21T13:20:31;3.30;;;0.77;;
26502;SDS011;14177;51.520;6.764;2022-08-21T13:23:35;5.53;;;0.90;;
26502;SDS011;14177;51.520;6.764;2022-08-21T13:26:11;2.92;;;0.73;;
26502;SDS011;14177;51.520;6.764;2022-08-21T13:28:45;4.53;;;0.75;;
26502;SDS011;14177;51.520;6.764;2022-08-21T13:31:20;5.95;;;0.90;;
26502;SDS011;14177;51.520;6.764;2022-08-21T13:33:56;3.40;;;0.75;;
26502;SDS011;14177;51.520;6.764;2022-08-21T13:36:25;4.53;;;0.90;;
26502;SDS011;14177;51.520;6.764;2022-08-21T13:39:00;4.65;;;1.00;;
26502;SDS011;14177;51.520;6.764;2022-08-21T13:41:34;4.53;;;0.93;;
26502;SDS011;14177;51.520;6.764;2022-08-21T13:44:12;3.88;;;0.85;;
26502;SDS011;14177;51.520;6.764;2022-08-21T13:46:48;2.78;;;0.80;;
26502;SDS011;14177;51.520;6.764;2022-08-21T13:49:17;3.20;;;0.95;;
26502;SDS011;14177;51.520;6.764;2022-08-21T13:51:52;3.45;;;0.63;;
26502;SDS011;14177;51.520;6.764;2022-08-21T13:56:52;3.53;;;0.68;;
26502;SDS011;14177;51.520;6.764;2022-08-21T13:59:31;3.03;;;0.43;;
26502;SDS011;14177;51.520;6.764;2022-08-21T14:02:08;2.97;;;0.80;;
26502;SDS011;14177;51.520;6.764;2022-08-21T14:04:51;3.83;;;0.95;;
26502;SDS011;14177;51.520;6.764;2022-08-21T14:07:20;3.13;;;0.80;;
26502;SDS011;14177;51.520;6.764;2022-08-21T14:12:41;5.28;;;0.93;;
26502;SDS011;14177;51.520;6.764;2022-08-21T14:15:15;3.65;;;0.73;;
26502;SDS011;14177;51.520;6.764;2022-08-21T14:17:45;4.30;;;1.00;;
26502;SDS011;14177;51.520;6.764;2022-08-21T14:20:13;1.67;;;0.73;;
26502;SDS011;14177;51.520;6.764;2022-08-21T14:22:59;6.32;;;0.65;;
26502;SDS011;14177;51.520;6.764;2022-08-21T14:25:47;3.97;;;0.77;;
26502;SDS011;14177;51.520;6.764;2022-08-21T14:28:27;5.30;;;0.90;;
26502;SDS011;14177;51.520;6.764;2022-08-21T14:31:10;5.22;;;1.02;;
26502;SDS011;14177;51.520;6.764;2022-08-21T14:33:45;2.60;;;0.80;;
26502;SDS011;14177;51.520;6.764;2022-08-21T14:36:13;5.28;;;1.08;;
26502;SDS011;14177;51.520;6.764;2022-08-21T14:38:41;3.00;;;0.77;;
26502;SDS011;14177;51.520;6.764;2022-08-21T14:41:15;2.35;;;0.73;;
26502;SDS011;14177;51.520;6.764;2022-08-21T14:43:49;5.88;;;0.88;;
26502;SDS011;14177;51.520;6.764;2022-08-21T14:46:32;3.90;;;0.90;;
26502;SDS011;14177;51.520;6.764;2022-08-21T14:49:11;6.07;;;0.90;;
26502;SDS011;14177;51.520;6.764;2022-08-21T14:51:39;2.78;;;0.80;;
26502;SDS011;14177;51.520;6.764;2022-08-21T14:54:19;4.63;;;0.80;;
26502;SDS011;14177;51.520;6.764;2022-08-21T14:56:56;8.13;;;1.05;;
26502;SDS011;14177;51.520;6.764;2022-08-21T14:59:28;3.45;;;0.90;;
26502;SDS011;14177;51.520;6.764;2022-08-21T15:01:56;3.42;;;0.70;;
26502;SDS011;14177;51.520;6.764;2022-08-21T15:04:23;3.03;;;0.80;;
26502;SDS011;14177;51.520;6.764;2022-08-21T15:06:50;3.83;;;0.90;;
26502;SDS011;14177;51.520;6.764;2022-08-21T15:09:17;2.08;;;0.90;;
26502;SDS011;14177;51.520;6.764;2022-08-21T15:11:44;4.00;;;0.70;;
26502;SDS011;14177;51.520;6.764;2022-08-21T15:14:13;5.13;;;0.90;;
26502;SDS011;14177;51.520;6.764;2022-08-21T15:16:49;2.75;;;0.77;;
26502;SDS011;14177;51.520;6.764;2022-08-21T15:19:18;2.58;;;0.60;;
26502;SDS011;14177;51.520;6.764;2022-08-21T15:21:45;3.90;;;0.90;;
26502;SDS011;14177;51.520;6.764;2022-08-21T15:24:12;3.42;;;0.80;;
26502;SDS011;14177;51.520;6.764;2022-08-21T15:26:39;1.85;;;0.57;;
26502;SDS011;14177;51.520;6.764;2022-08-21T15:29:07;5.22;;;0.70;;
26502;SDS011;14177;51.520;6.764;2022-08-21T15:31:35;3.83;;;0.80;;
26502;SDS011;14177;51.520;6.764;2022-08-21T15:34:02;4.25;;;1.10;;
26502;SDS011;14177;51.520;6.764;2022-08-21T15:36:29;3.80;;;0.73;;
26502;SDS011;14177;51.520;6.764;2022-08-21T15:38:56;3.90;;;0.73;;
26502;SDS011;14177;51.520;6.764;2022-08-21T15:41:23;3.10;;;0.80;;
26502;SDS011;14177;51.520;6.764;2022-08-21T15:43:51;4.00;;;1.00;;
26502;SDS011;14177;51.520;6.764;2022-08-21T15:46:19;2.67;;;0.82;;
26502;SDS011;14177;51.520;6.764;2022-08-21T15:48:47;4.00;;;1.10;;
26502;SDS011;14177;51.520;6.764;2022-08-21T15:51:15;4.23;;;0.70;;
26502;SDS011;14177;51.520;6.764;2022-08-21T15:53:43;3.42;;;1.00;;
26502;SDS011;14177;51.520;6.764;2022-08-21T15:56:25;2.05;;;0.77;;
26502;SDS011;14177;51.520;6.764;2022-08-21T15:59:01;1.67;;;0.70;;
26502;SDS011;14177;51.520;6.764;2022-08-21T16:01:34;3.10;;;1.20;;
26502;SDS011;14177;51.520;6.764;2022-08-21T16:04:11;4.55;;;0.77;;
26502;SDS011;14177;51.520;6.764;2022-08-21T16:06:48;4.30;;;0.98;;
26502;SDS011;14177;51.520;6.764;2022-08-21T16:09:21;2.65;;;0.80;;
26502;SDS011;14177;51.520;6.764;2022-08-21T16:11:48;2.80;;;0.70;;
26502;SDS011;14177;51.520;6.764;2022-08-21T16:14:15;2.95;;;0.80;;
26502;SDS011;14177;51.520;6.764;2022-08-21T16:16:43;3.92;;;1.00;;
26502;SDS011;14177;51.520;6.764;2022-08-21T16:19:11;3.90;;;0.90;;
26502;SDS011;14177;51.520;6.764;2022-08-21T16:21:40;1.83;;;0.65;;
26502;SDS011;14177;51.520;6.764;2022-08-21T16:24:07;3.88;;;0.60;;
26502;SDS011;14177;51.520;6.764;2022-08-21T16:26:34;3.38;;;0.90;;
26502;SDS011;14177;51.520;6.764;2022-08-21T16:29:02;2.75;;;0.80;;
26502;SDS011;14177;51.520;6.764;2022-08-21T16:31:31;4.00;;;0.82;;
26502;SDS011;14177;51.520;6.764;2022-08-21T16:33:59;4.30;;;1.58;;
26502;SDS011;14177;51.520;6.764;2022-08-21T16:36:27;4.25;;;0.90;;
26502;SDS011;14177;51.520;6.764;2022-08-21T16:38:55;4.60;;;0.82;;
26502;SDS011;14177;51.520;6.764;2022-08-21T16:41:25;2.97;;;1.30;;
26502;SDS011;14177;51.520;6.764;2022-08-21T16:43:58;5.68;;;1.25;;
26502;SDS011;14177;51.520;6.764;2022-08-21T16:46:27;6.30;;;1.88;;
26502;SDS011;14177;51.520;6.764;2022-08-21T16:48:59;8.00;;;3.15;;
26502;SDS011;14177;51.520;6.764;2022-08-21T16:51:26;3.80;;;1.40;;
26502;SDS011;14177;51.520;6.764;2022-08-21T16:53:54;5.80;;;2.22;;
26502;SDS011;14177;51.520;6.764;2022-08-21T16:56:21;3.30;;;1.73;;